sensor_id;sensor_type;location;lat;lon;timestamp;temperature;humidity
8043;DHT22;4064;48.132;11.366;2022-12-29T00:00:13;4.10;99.20
8043;DHT22;4064;48.132;11.366;2022-12-29T00:02:39;4.20;98.90
8043;DHT22;4064;48.132;11.366;2022-12-29T00:05:09;4.20;98.70
8043;DHT22;4064;48.132;11.366;2022-12-29T00:07:35;4.30;98.50
8043;DHT22;4064;48.132;11.366;2022-12-29T00:10:01;4.30;98.50
8043;DHT22;4064;48.132;11.366;2022-12-29T00:12:30;4.30;98.40
8043;DHT22;4064;48.132;11.366;2022-12-29T00:15:16;4.30;98.30
8043;DHT22;4064;48.132;11.366;2022-12-29T00:18:17;4.30;98.30
8043;DHT22;4064;48.132;11.366;2022-12-29T00:20:43;4.30;98.20
8043;DHT22;4064;48.132;11.366;2022-12-29T00:23:28;4.30;98.20
8043;DHT22;4064;48.132;11.366;2022-12-29T00:26:17;4.30;98.20
8043;DHT22;4064;48.132;11.366;2022-12-29T00:29:03;4.20;98.50
8043;DHT22;4064;48.132;11.366;2022-12-29T00:31:47;4.10;98.30
8043;DHT22;4064;48.132;11.366;2022-12-29T00:34:32;4.10;98.30
8043;DHT22;4064;48.132;11.366;2022-12-29T00:37:17;4.10;98.10
8043;DHT22;4064;48.132;11.366;2022-12-29T00:40:03;4.00;98.20
8043;DHT22;4064;48.132;11.366;2022-12-29T00:42:48;4.00;98.10
8043;DHT22;4064;48.132;11.366;2022-12-29T00:48:00;4.00;98.50
8043;DHT22;4064;48.132;11.366;2022-12-29T00:50:26;3.90;97.90
8043;DHT22;4064;48.132;11.366;2022-12-29T00:52:56;3.90;98.00
8043;DHT22;4064;48.132;11.366;2022-12-29T00:55:22;3.90;97.90
8043;DHT22;4064;48.132;11.366;2022-12-29T00:57:48;3.90;98.00
8043;DHT22;4064;48.132;11.366;2022-12-29T01:02:52;3.80;98.00
8043;DHT22;4064;48.132;11.366;2022-12-29T01:05:24;3.90;98.00
8043;DHT22;4064;48.132;11.366;2022-12-29T01:08:04;3.90;97.90
8043;DHT22;4064;48.132;11.366;2022-12-29T01:10:30;3.90;97.80
8043;DHT22;4064;48.132;11.366;2022-12-29T01:12:56;3.90;97.60
8043;DHT22;4064;48.132;11.366;2022-12-29T01:15:22;3.90;97.70
8043;DHT22;4064;48.132;11.366;2022-12-29T01:17:47;3.90;97.50
8043;DHT22;4064;48.132;11.366;2022-12-29T01:20:13;4.00;97.50
8043;DHT22;4064;48.132;11.366;2022-12-29T01:22:39;4.00;97.70
8043;DHT22;4064;48.132;11.366;2022-12-29T01:25:05;4.00;97.60
8043;DHT22;4064;48.132;11.366;2022-12-29T01:27:31;4.10;97.60
8043;DHT22;4064;48.132;11.366;2022-12-29T01:29:57;4.10;97.60
8043;DHT22;4064;48.132;11.366;2022-12-29T01:32:23;4.10;97.50
8043;DHT22;4064;48.132;11.366;2022-12-29T01:34:48;4.20;97.50
8043;DHT22;4064;48.132;11.366;2022-12-29T01:37:14;4.10;97.70
8043;DHT22;4064;48.132;11.366;2022-12-29T01:39:40;4.10;97.80
8043;DHT22;4064;48.132;11.366;2022-12-29T01:42:08;4.20;97.60
8043;DHT22;4064;48.132;11.366;2022-12-29T01:45:07;4.10;97.50
8043;DHT22;4064;48.132;11.366;2022-12-29T01:50:33;4.10;97.60
8043;DHT22;4064;48.132;11.366;2022-12-29T01:53:30;4.10;97.70
8043;DHT22;4064;48.132;11.366;2022-12-29T01:56:00;4.10;97.60
8043;DHT22;4064;48.132;11.366;2022-12-29T01:58:30;4.10;97.70
8043;DHT22;4064;48.132;11.366;2022-12-29T02:00:57;4.10;97.70
8043;DHT22;4064;48.132;11.366;2022-12-29T02:03:27;4.10;97.70
8043;DHT22;4064;48.132;11.366;2022-12-29T02:08:28;4.10;97.60
8043;DHT22;4064;48.132;11.366;2022-12-29T02:10:56;4.10;97.60
8043;DHT22;4064;48.132;11.366;2022-12-29T02:13:24;4.10;97.30
8043;DHT22;4064;48.132;11.366;2022-12-29T02:30:03;4.30;96.90
8043;DHT22;4064;48.132;11.366;2022-12-29T02:32:37;4.30;96.70
8043;DHT22;4064;48.132;11.366;2022-12-29T02:35:20;4.40;96.50
8043;DHT22;4064;48.132;11.366;2022-12-29T02:48:28;4.60;95.80
8043;DHT22;4064;48.132;11.366;2022-12-29T02:51:02;4.60;95.60
8043;DHT22;4064;48.132;11.366;2022-12-29T02:53:31;4.70;95.50
8043;DHT22;4064;48.132;11.366;2022-12-29T02:56:24;4.70;95.50
8043;DHT22;4064;48.132;11.366;2022-12-29T02:58:50;4.70;95.40
8043;DHT22;4064;48.132;11.366;2022-12-29T03:04:31;4.80;95.30
8043;DHT22;4064;48.132;11.366;2022-12-29T03:07:18;4.90;95.20
8043;DHT22;4064;48.132;11.366;2022-12-29T03:12:54;5.00;95.00
8043;DHT22;4064;48.132;11.366;2022-12-29T03:15:46;5.00;94.80
8043;DHT22;4064;48.132;11.366;2022-12-29T03:18:37;5.10;94.70
8043;DHT22;4064;48.132;11.366;2022-12-29T03:21:37;5.10;94.40
8043;DHT22;4064;48.132;11.366;2022-12-29T03:24:28;5.20;94.20
8043;DHT22;4064;48.132;11.366;2022-12-29T03:26:58;5.30;93.90
8043;DHT22;4064;48.132;11.366;2022-12-29T03:29:25;5.30;93.90
8043;DHT22;4064;48.132;11.366;2022-12-29T03:31:53;5.30;93.80
8043;DHT22;4064;48.132;11.366;2022-12-29T03:34:21;5.30;93.50
8043;DHT22;4064;48.132;11.366;2022-12-29T03:36:52;5.40;93.40
8043;DHT22;4064;48.132;11.366;2022-12-29T03:39:20;5.50;93.10
8043;DHT22;4064;48.132;11.366;2022-12-29T03:41:50;5.50;93.00
8043;DHT22;4064;48.132;11.366;2022-12-29T03:44:19;5.60;93.00
8043;DHT22;4064;48.132;11.366;2022-12-29T03:46:45;5.60;92.80
8043;DHT22;4064;48.132;11.366;2022-12-29T03:49:10;5.70;92.80
8043;DHT22;4064;48.132;11.366;2022-12-29T03:51:36;5.70;92.60
8043;DHT22;4064;48.132;11.366;2022-12-29T03:54:02;5.70;92.40
8043;DHT22;4064;48.132;11.366;2022-12-29T03:56:28;5.80;92.20
8043;DHT22;4064;48.132;11.366;2022-12-29T03:58:53;5.90;91.90
8043;DHT22;4064;48.132;11.366;2022-12-29T04:01:19;5.90;91.70
8043;DHT22;4064;48.132;11.366;2022-12-29T04:03:45;6.00;91.70
8043;DHT22;4064;48.132;11.366;2022-12-29T04:06:10;6.00;91.60
8043;DHT22;4064;48.132;11.366;2022-12-29T04:08:36;6.00;91.60
8043;DHT22;4064;48.132;11.366;2022-12-29T04:11:02;6.00;91.70
8043;DHT22;4064;48.132;11.366;2022-12-29T04:13:27;6.00;91.80
8043;DHT22;4064;48.132;11.366;2022-12-29T04:15:53;6.00;91.90
8043;DHT22;4064;48.132;11.366;2022-12-29T04:18:18;6.00;92.20
8043;DHT22;4064;48.132;11.366;2022-12-29T04:20:44;6.00;92.30
8043;DHT22;4064;48.132;11.366;2022-12-29T04:23:26;6.00;92.50
8043;DHT22;4064;48.132;11.366;2022-12-29T04:25:52;6.00;92.70
8043;DHT22;4064;48.132;11.366;2022-12-29T04:28:18;6.00;92.60
8043;DHT22;4064;48.132;11.366;2022-12-29T04:30:45;6.00;92.50
8043;DHT22;4064;48.132;11.366;2022-12-29T04:33:11;6.00;92.60
8043;DHT22;4064;48.132;11.366;2022-12-29T04:35:36;6.00;92.50
8043;DHT22;4064;48.132;11.366;2022-12-29T04:38:02;6.00;92.50
8043;DHT22;4064;48.132;11.366;2022-12-29T04:40:28;6.00;92.50
8043;DHT22;4064;48.132;11.366;2022-12-29T04:42:54;6.00;92.50
8043;DHT22;4064;48.132;11.366;2022-12-29T04:45:20;6.00;92.50
8043;DHT22;4064;48.132;11.366;2022-12-29T04:47:45;6.00;92.50
8043;DHT22;4064;48.132;11.366;2022-12-29T04:50:11;6.00;92.60
8043;DHT22;4064;48.132;11.366;2022-12-29T04:52:37;6.00;92.70
8043;DHT22;4064;48.132;11.366;2022-12-29T04:55:03;6.00;92.80
8043;DHT22;4064;48.132;11.366;2022-12-29T04:57:29;6.00;92.80
8043;DHT22;4064;48.132;11.366;2022-12-29T04:59:55;6.00;93.00
8043;DHT22;4064;48.132;11.366;2022-12-29T05:02:20;6.00;93.10
8043;DHT22;4064;48.132;11.366;2022-12-29T05:04:46;6.00;93.20
8043;DHT22;4064;48.132;11.366;2022-12-29T05:07:12;6.00;93.10
8043;DHT22;4064;48.132;11.366;2022-12-29T05:09:38;6.00;93.20
8043;DHT22;4064;48.132;11.366;2022-12-29T05:12:03;6.00;93.20
8043;DHT22;4064;48.132;11.366;2022-12-29T05:14:29;6.00;93.10
8043;DHT22;4064;48.132;11.366;2022-12-29T05:16:54;6.00;93.00
8043;DHT22;4064;48.132;11.366;2022-12-29T05:19:22;6.00;92.90
8043;DHT22;4064;48.132;11.366;2022-12-29T05:21:48;6.10;92.80
8043;DHT22;4064;48.132;11.366;2022-12-29T05:24:14;6.10;92.80
8043;DHT22;4064;48.132;11.366;2022-12-29T05:26:41;6.10;92.60
8043;DHT22;4064;48.132;11.366;2022-12-29T05:29:07;6.10;92.50
8043;DHT22;4064;48.132;11.366;2022-12-29T05:31:32;6.10;92.40
8043;DHT22;4064;48.132;11.366;2022-12-29T05:33:58;6.10;92.50
8043;DHT22;4064;48.132;11.366;2022-12-29T05:36:24;6.20;92.20
8043;DHT22;4064;48.132;11.366;2022-12-29T05:38:50;6.20;92.00
8043;DHT22;4064;48.132;11.366;2022-12-29T05:41:15;6.20;91.90
8043;DHT22;4064;48.132;11.366;2022-12-29T05:43:41;6.30;91.40
8043;DHT22;4064;48.132;11.366;2022-12-29T05:46:07;6.30;91.20
8043;DHT22;4064;48.132;11.366;2022-12-29T05:48:32;6.30;91.10
8043;DHT22;4064;48.132;11.366;2022-12-29T05:50:58;6.30;91.10
8043;DHT22;4064;48.132;11.366;2022-12-29T05:53:23;6.30;91.00
8043;DHT22;4064;48.132;11.366;2022-12-29T05:55:49;6.30;90.90
8043;DHT22;4064;48.132;11.366;2022-12-29T05:58:16;6.30;91.10
8043;DHT22;4064;48.132;11.366;2022-12-29T06:00:42;6.30;91.00
8043;DHT22;4064;48.132;11.366;2022-12-29T06:03:07;6.40;91.00
8043;DHT22;4064;48.132;11.366;2022-12-29T06:05:33;6.40;90.70
8043;DHT22;4064;48.132;11.366;2022-12-29T06:07:59;6.40;90.40
8043;DHT22;4064;48.132;11.366;2022-12-29T06:10:24;6.50;90.50
8043;DHT22;4064;48.132;11.366;2022-12-29T06:12:50;6.40;90.80
8043;DHT22;4064;48.132;11.366;2022-12-29T06:15:16;6.50;91.20
8043;DHT22;4064;48.132;11.366;2022-12-29T06:17:42;6.40;91.40
8043;DHT22;4064;48.132;11.366;2022-12-29T06:20:08;6.40;91.50
8043;DHT22;4064;48.132;11.366;2022-12-29T06:22:35;6.40;91.60
8043;DHT22;4064;48.132;11.366;2022-12-29T06:25:01;6.40;91.60
8043;DHT22;4064;48.132;11.366;2022-12-29T06:27:27;6.40;91.40
8043;DHT22;4064;48.132;11.366;2022-12-29T06:29:53;6.30;91.20
8043;DHT22;4064;48.132;11.366;2022-12-29T06:32:18;6.40;91.10
8043;DHT22;4064;48.132;11.366;2022-12-29T06:34:44;6.40;91.20
8043;DHT22;4064;48.132;11.366;2022-12-29T06:37:10;6.30;91.20
8043;DHT22;4064;48.132;11.366;2022-12-29T06:39:36;6.40;91.20
8043;DHT22;4064;48.132;11.366;2022-12-29T06:42:02;6.30;91.20
8043;DHT22;4064;48.132;11.366;2022-12-29T06:44:28;6.30;91.30
8043;DHT22;4064;48.132;11.366;2022-12-29T06:46:53;6.30;91.10
8043;DHT22;4064;48.132;11.366;2022-12-29T06:49:19;6.30;91.00
8043;DHT22;4064;48.132;11.366;2022-12-29T06:51:44;6.30;90.90
8043;DHT22;4064;48.132;11.366;2022-12-29T06:54:10;6.30;90.80
8043;DHT22;4064;48.132;11.366;2022-12-29T06:56:36;6.30;90.70
8043;DHT22;4064;48.132;11.366;2022-12-29T06:59:02;6.30;90.70
8043;DHT22;4064;48.132;11.366;2022-12-29T07:01:27;6.30;90.60
8043;DHT22;4064;48.132;11.366;2022-12-29T07:03:53;6.30;90.70
8043;DHT22;4064;48.132;11.366;2022-12-29T07:06:19;6.30;90.60
8043;DHT22;4064;48.132;11.366;2022-12-29T07:08:44;6.30;90.40
8043;DHT22;4064;48.132;11.366;2022-12-29T07:11:10;6.30;90.20
8043;DHT22;4064;48.132;11.366;2022-12-29T07:13:36;6.30;90.30
8043;DHT22;4064;48.132;11.366;2022-12-29T07:16:08;6.30;89.40
8043;DHT22;4064;48.132;11.366;2022-12-29T07:18:34;6.30;89.40
8043;DHT22;4064;48.132;11.366;2022-12-29T07:21:00;6.30;88.90
8043;DHT22;4064;48.132;11.366;2022-12-29T07:23:26;6.30;88.60
8043;DHT22;4064;48.132;11.366;2022-12-29T07:26:03;6.30;88.30
8043;DHT22;4064;48.132;11.366;2022-12-29T07:28:29;6.30;88.10
8043;DHT22;4064;48.132;11.366;2022-12-29T07:30:55;6.30;87.80
8043;DHT22;4064;48.132;11.366;2022-12-29T07:33:21;6.40;87.80
8043;DHT22;4064;48.132;11.366;2022-12-29T07:35:46;6.40;87.90
8043;DHT22;4064;48.132;11.366;2022-12-29T07:38:12;6.50;87.80
8043;DHT22;4064;48.132;11.366;2022-12-29T07:40:38;6.60;87.50
8043;DHT22;4064;48.132;11.366;2022-12-29T07:43:03;6.70;86.80
8043;DHT22;4064;48.132;11.366;2022-12-29T07:45:29;6.80;86.60
8043;DHT22;4064;48.132;11.366;2022-12-29T07:47:55;6.90;86.10
8043;DHT22;4064;48.132;11.366;2022-12-29T07:50:21;7.00;85.30
8043;DHT22;4064;48.132;11.366;2022-12-29T07:52:46;7.10;84.20
8043;DHT22;4064;48.132;11.366;2022-12-29T07:55:16;7.20;84.50
8043;DHT22;4064;48.132;11.366;2022-12-29T07:57:42;7.30;84.20
8043;DHT22;4064;48.132;11.366;2022-12-29T08:00:11;7.40;83.90
8043;DHT22;4064;48.132;11.366;2022-12-29T08:02:37;7.40;83.10
8043;DHT22;4064;48.132;11.366;2022-12-29T08:05:03;7.50;82.30
8043;DHT22;4064;48.132;11.366;2022-12-29T08:07:29;7.50;81.70
8043;DHT22;4064;48.132;11.366;2022-12-29T08:09:55;7.60;81.90
8043;DHT22;4064;48.132;11.366;2022-12-29T08:12:20;7.60;82.00
8043;DHT22;4064;48.132;11.366;2022-12-29T08:14:46;7.70;81.50
8043;DHT22;4064;48.132;11.366;2022-12-29T08:17:11;7.80;80.70
8043;DHT22;4064;48.132;11.366;2022-12-29T08:19:37;7.80;80.70
8043;DHT22;4064;48.132;11.366;2022-12-29T08:22:03;7.90;80.10
8043;DHT22;4064;48.132;11.366;2022-12-29T08:24:28;7.90;80.00
8043;DHT22;4064;48.132;11.366;2022-12-29T08:26:54;7.90;80.40
8043;DHT22;4064;48.132;11.366;2022-12-29T08:29:23;7.90;80.80
8043;DHT22;4064;48.132;11.366;2022-12-29T08:31:48;7.90;81.60
8043;DHT22;4064;48.132;11.366;2022-12-29T08:34:14;8.00;81.70
8043;DHT22;4064;48.132;11.366;2022-12-29T08:36:39;8.00;81.60
8043;DHT22;4064;48.132;11.366;2022-12-29T08:39:05;8.20;82.10
8043;DHT22;4064;48.132;11.366;2022-12-29T08:41:31;8.30;80.40
8043;DHT22;4064;48.132;11.366;2022-12-29T08:43:56;8.30;79.70
8043;DHT22;4064;48.132;11.366;2022-12-29T08:46:22;8.40;79.60
8043;DHT22;4064;48.132;11.366;2022-12-29T08:48:48;8.50;79.50
8043;DHT22;4064;48.132;11.366;2022-12-29T08:51:13;8.60;79.30
8043;DHT22;4064;48.132;11.366;2022-12-29T08:53:39;8.70;79.80
8043;DHT22;4064;48.132;11.366;2022-12-29T08:56:05;8.70;79.60
8043;DHT22;4064;48.132;11.366;2022-12-29T08:58:31;8.80;78.30
8043;DHT22;4064;48.132;11.366;2022-12-29T09:00:58;8.80;77.30
8043;DHT22;4064;48.132;11.366;2022-12-29T09:03:24;8.90;77.10
8043;DHT22;4064;48.132;11.366;2022-12-29T09:05:51;9.00;77.20
8043;DHT22;4064;48.132;11.366;2022-12-29T09:08:17;9.10;75.80
8043;DHT22;4064;48.132;11.366;2022-12-29T09:10:44;9.20;75.10
8043;DHT22;4064;48.132;11.366;2022-12-29T09:13:11;9.30;74.50
8043;DHT22;4064;48.132;11.366;2022-12-29T09:15:37;9.40;74.50
8043;DHT22;4064;48.132;11.366;2022-12-29T09:18:03;9.50;74.20
8043;DHT22;4064;48.132;11.366;2022-12-29T09:20:29;9.70;73.30
8043;DHT22;4064;48.132;11.366;2022-12-29T09:22:54;9.90;72.80
8043;DHT22;4064;48.132;11.366;2022-12-29T09:25:20;10.00;71.60
8043;DHT22;4064;48.132;11.366;2022-12-29T09:27:48;10.20;70.50
8043;DHT22;4064;48.132;11.366;2022-12-29T09:30:14;10.30;70.40
8043;DHT22;4064;48.132;11.366;2022-12-29T09:32:40;10.40;70.20
8043;DHT22;4064;48.132;11.366;2022-12-29T09:35:06;10.50;70.40
8043;DHT22;4064;48.132;11.366;2022-12-29T09:37:32;10.60;69.30
8043;DHT22;4064;48.132;11.366;2022-12-29T09:39:58;10.70;69.00
8043;DHT22;4064;48.132;11.366;2022-12-29T09:42:29;10.60;68.00
8043;DHT22;4064;48.132;11.366;2022-12-29T09:45:20;10.50;68.00
8043;DHT22;4064;48.132;11.366;2022-12-29T09:47:50;10.50;67.40
8043;DHT22;4064;48.132;11.366;2022-12-29T09:50:31;10.40;67.00
8043;DHT22;4064;48.132;11.366;2022-12-29T09:53:09;10.40;66.80
8043;DHT22;4064;48.132;11.366;2022-12-29T09:55:42;10.30;67.00
8043;DHT22;4064;48.132;11.366;2022-12-29T10:03:58;10.30;66.40
8043;DHT22;4064;48.132;11.366;2022-12-29T10:06:56;10.20;66.00
8043;DHT22;4064;48.132;11.366;2022-12-29T10:09:26;10.30;66.10
8043;DHT22;4064;48.132;11.366;2022-12-29T10:12:03;10.30;65.90
8043;DHT22;4064;48.132;11.366;2022-12-29T10:14:41;10.30;65.60
8043;DHT22;4064;48.132;11.366;2022-12-29T10:24:56;10.40;65.90
8043;DHT22;4064;48.132;11.366;2022-12-29T10:27:32;10.50;65.70
8043;DHT22;4064;48.132;11.366;2022-12-29T10:30:00;10.50;66.00
8043;DHT22;4064;48.132;11.366;2022-12-29T10:32:43;10.60;65.70
8043;DHT22;4064;48.132;11.366;2022-12-29T10:35:16;10.60;65.60
8043;DHT22;4064;48.132;11.366;2022-12-29T10:37:47;10.70;65.50
8043;DHT22;4064;48.132;11.366;2022-12-29T10:42:53;10.80;65.00
8043;DHT22;4064;48.132;11.366;2022-12-29T10:45:19;10.90;64.80
8043;DHT22;4064;48.132;11.366;2022-12-29T10:47:59;10.90;64.60
8043;DHT22;4064;48.132;11.366;2022-12-29T10:50:27;10.90;64.30
8043;DHT22;4064;48.132;11.366;2022-12-29T10:52:57;11.00;63.60
8043;DHT22;4064;48.132;11.366;2022-12-29T10:55:35;11.00;63.10
8043;DHT22;4064;48.132;11.366;2022-12-29T10:58:04;11.00;62.40
8043;DHT22;4064;48.132;11.366;2022-12-29T11:00:32;11.00;62.30
8043;DHT22;4064;48.132;11.366;2022-12-29T11:03:21;11.10;62.20
8043;DHT22;4064;48.132;11.366;2022-12-29T11:06:03;11.20;61.40
8043;DHT22;4064;48.132;11.366;2022-12-29T11:08:36;11.30;61.40
8043;DHT22;4064;48.132;11.366;2022-12-29T11:11:05;11.50;61.40
8043;DHT22;4064;48.132;11.366;2022-12-29T11:16:13;12.00;61.50
8043;DHT22;4064;48.132;11.366;2022-12-29T11:18:40;12.30;61.30
8043;DHT22;4064;48.132;11.366;2022-12-29T11:21:40;12.60;60.70
8043;DHT22;4064;48.132;11.366;2022-12-29T11:24:25;12.90;60.20
8043;DHT22;4064;48.132;11.366;2022-12-29T11:26:53;13.10;59.40
8043;DHT22;4064;48.132;11.366;2022-12-29T11:29:42;13.10;59.00
8043;DHT22;4064;48.132;11.366;2022-12-29T11:32:22;13.10;59.00
8043;DHT22;4064;48.132;11.366;2022-12-29T11:34:49;13.10;59.20
8043;DHT22;4064;48.132;11.366;2022-12-29T11:37:47;13.00;57.70
8043;DHT22;4064;48.132;11.366;2022-12-29T11:40:24;13.00;57.90
8043;DHT22;4064;48.132;11.366;2022-12-29T11:43:00;13.00;58.10
8043;DHT22;4064;48.132;11.366;2022-12-29T11:45:35;13.10;57.80
8043;DHT22;4064;48.132;11.366;2022-12-29T11:50:33;13.50;57.70
8043;DHT22;4064;48.132;11.366;2022-12-29T11:53:46;13.80;57.50
8043;DHT22;4064;48.132;11.366;2022-12-29T11:56:01;13.90;56.70
8043;DHT22;4064;48.132;11.366;2022-12-29T11:58:35;13.90;54.20
8043;DHT22;4064;48.132;11.366;2022-12-29T12:01:28;13.90;55.10
8043;DHT22;4064;48.132;11.366;2022-12-29T12:04:12;14.00;54.50
8043;DHT22;4064;48.132;11.366;2022-12-29T12:07:08;14.10;54.20
8043;DHT22;4064;48.132;11.366;2022-12-29T12:12:27;14.20;53.50
8043;DHT22;4064;48.132;11.366;2022-12-29T12:14:55;14.10;53.70
8043;DHT22;4064;48.132;11.366;2022-12-29T12:17:52;14.10;54.00
8043;DHT22;4064;48.132;11.366;2022-12-29T12:20:52;14.10;53.50
8043;DHT22;4064;48.132;11.366;2022-12-29T12:23:25;14.10;54.80
8043;DHT22;4064;48.132;11.366;2022-12-29T12:26:10;14.20;54.50
8043;DHT22;4064;48.132;11.366;2022-12-29T12:31:29;14.40;55.50
8043;DHT22;4064;48.132;11.366;2022-12-29T12:34:02;14.50;55.30
8043;DHT22;4064;48.132;11.366;2022-12-29T12:36:51;14.50;55.50
8043;DHT22;4064;48.132;11.366;2022-12-29T12:45:10;14.10;55.20
8043;DHT22;4064;48.132;11.366;2022-12-29T12:56:32;13.40;57.50
8043;DHT22;4064;48.132;11.366;2022-12-29T13:11:10;12.80;59.40
8043;DHT22;4064;48.132;11.366;2022-12-29T13:14:29;12.70;59.30
8043;DHT22;4064;48.132;11.366;2022-12-29T13:20:22;12.70;60.00
8043;DHT22;4064;48.132;11.366;2022-12-29T13:28:34;12.60;60.90
8043;DHT22;4064;48.132;11.366;2022-12-29T13:31:08;12.60;61.60
8043;DHT22;4064;48.132;11.366;2022-12-29T13:36:26;12.40;62.70
8043;DHT22;4064;48.132;11.366;2022-12-29T13:41:41;12.40;64.40
8043;DHT22;4064;48.132;11.366;2022-12-29T13:44:14;12.30;65.00
8043;DHT22;4064;48.132;11.366;2022-12-29T13:46:44;12.30;65.90
8043;DHT22;4064;48.132;11.366;2022-12-29T13:49:19;12.20;66.40
8043;DHT22;4064;48.132;11.366;2022-12-29T13:51:55;12.20;67.10
8043;DHT22;4064;48.132;11.366;2022-12-29T13:54:44;12.20;68.80
8043;DHT22;4064;48.132;11.366;2022-12-29T14:00:03;12.10;69.20
8043;DHT22;4064;48.132;11.366;2022-12-29T14:07:49;12.00;70.40
8043;DHT22;4064;48.132;11.366;2022-12-29T14:10:33;11.90;70.60
8043;DHT22;4064;48.132;11.366;2022-12-29T14:13:21;11.90;71.30
8043;DHT22;4064;48.132;11.366;2022-12-29T14:15:56;11.90;70.80
8043;DHT22;4064;48.132;11.366;2022-12-29T14:18:27;11.90;70.80
8043;DHT22;4064;48.132;11.366;2022-12-29T14:21:11;11.80;70.90
8043;DHT22;4064;48.132;11.366;2022-12-29T14:23:45;11.80;71.00
8043;DHT22;4064;48.132;11.366;2022-12-29T14:26:12;11.70;71.40
8043;DHT22;4064;48.132;11.366;2022-12-29T14:28:48;11.60;71.60
8043;DHT22;4064;48.132;11.366;2022-12-29T14:33:41;11.50;71.80
8043;DHT22;4064;48.132;11.366;2022-12-29T14:36:33;11.50;72.10
8043;DHT22;4064;48.132;11.366;2022-12-29T14:38:59;11.40;72.40
8043;DHT22;4064;48.132;11.366;2022-12-29T14:41:35;11.30;72.60
8043;DHT22;4064;48.132;11.366;2022-12-29T14:46:44;11.30;73.10
8043;DHT22;4064;48.132;11.366;2022-12-29T14:49:17;11.20;73.70
8043;DHT22;4064;48.132;11.366;2022-12-29T14:51:43;11.10;73.80
8043;DHT22;4064;48.132;11.366;2022-12-29T14:57:01;11.00;74.90
8043;DHT22;4064;48.132;11.366;2022-12-29T14:59:28;10.90;74.70
8043;DHT22;4064;48.132;11.366;2022-12-29T15:01:55;10.90;74.60
8043;DHT22;4064;48.132;11.366;2022-12-29T15:04:30;10.90;75.00
8043;DHT22;4064;48.132;11.366;2022-12-29T15:06:56;10.80;75.00
8043;DHT22;4064;48.132;11.366;2022-12-29T15:09:35;10.80;75.40
8043;DHT22;4064;48.132;11.366;2022-12-29T15:14:52;10.80;74.70
8043;DHT22;4064;48.132;11.366;2022-12-29T15:17:34;10.80;75.20
8043;DHT22;4064;48.132;11.366;2022-12-29T15:20:14;10.80;75.00
8043;DHT22;4064;48.132;11.366;2022-12-29T15:22:53;10.80;75.10
8043;DHT22;4064;48.132;11.366;2022-12-29T15:25:19;10.90;75.30
8043;DHT22;4064;48.132;11.366;2022-12-29T15:27:50;10.80;75.80
8043;DHT22;4064;48.132;11.366;2022-12-29T15:30:16;10.80;76.10
8043;DHT22;4064;48.132;11.366;2022-12-29T15:32:44;10.80;76.30
8043;DHT22;4064;48.132;11.366;2022-12-29T15:37:54;10.70;76.60
8043;DHT22;4064;48.132;11.366;2022-12-29T15:40:26;10.60;76.70
8043;DHT22;4064;48.132;11.366;2022-12-29T15:45:42;10.60;77.20
8043;DHT22;4064;48.132;11.366;2022-12-29T15:48:15;10.60;77.30
8043;DHT22;4064;48.132;11.366;2022-12-29T15:50:42;10.50;77.40
8043;DHT22;4064;48.132;11.366;2022-12-29T15:53:21;10.50;78.00
8043;DHT22;4064;48.132;11.366;2022-12-29T15:55:50;10.40;78.30
8043;DHT22;4064;48.132;11.366;2022-12-29T15:58:22;10.40;78.20
8043;DHT22;4064;48.132;11.366;2022-12-29T16:00:59;10.40;78.30
8043;DHT22;4064;48.132;11.366;2022-12-29T16:03:33;10.30;78.60
8043;DHT22;4064;48.132;11.366;2022-12-29T16:06:10;10.30;78.90
8043;DHT22;4064;48.132;11.366;2022-12-29T16:08:40;10.30;78.80
8043;DHT22;4064;48.132;11.366;2022-12-29T16:11:24;10.30;78.90
8043;DHT22;4064;48.132;11.366;2022-12-29T16:13:52;10.30;79.00
8043;DHT22;4064;48.132;11.366;2022-12-29T16:18:50;10.20;79.60
8043;DHT22;4064;48.132;11.366;2022-12-29T16:21:35;10.20;79.90
8043;DHT22;4064;48.132;11.366;2022-12-29T16:24:18;10.20;79.80
8043;DHT22;4064;48.132;11.366;2022-12-29T16:27:31;10.20;80.10
8043;DHT22;4064;48.132;11.366;2022-12-29T16:29:37;10.30;80.20
8043;DHT22;4064;48.132;11.366;2022-12-29T16:32:25;10.30;80.70
8043;DHT22;4064;48.132;11.366;2022-12-29T16:40:37;10.10;81.80
8043;DHT22;4064;48.132;11.366;2022-12-29T16:43:04;10.20;82.00
8043;DHT22;4064;48.132;11.366;2022-12-29T16:50:41;10.10;83.10
8043;DHT22;4064;48.132;11.366;2022-12-29T16:53:31;10.10;83.40
8043;DHT22;4064;48.132;11.366;2022-12-29T16:56:13;10.10;83.70
8043;DHT22;4064;48.132;11.366;2022-12-29T16:58:40;10.00;83.90
8043;DHT22;4064;48.132;11.366;2022-12-29T17:01:06;10.00;84.40
8043;DHT22;4064;48.132;11.366;2022-12-29T17:03:44;9.90;86.10
8043;DHT22;4064;48.132;11.366;2022-12-29T17:06:16;9.80;86.20
8043;DHT22;4064;48.132;11.366;2022-12-29T17:08:43;9.80;86.60
8043;DHT22;4064;48.132;11.366;2022-12-29T17:11:21;9.70;86.90
8043;DHT22;4064;48.132;11.366;2022-12-29T17:16:49;9.60;87.50
8043;DHT22;4064;48.132;11.366;2022-12-29T17:19:19;9.60;87.80
8043;DHT22;4064;48.132;11.366;2022-12-29T17:21:46;9.60;88.10
8043;DHT22;4064;48.132;11.366;2022-12-29T17:24:20;9.50;88.40
8043;DHT22;4064;48.132;11.366;2022-12-29T17:26:49;9.50;88.60
8043;DHT22;4064;48.132;11.366;2022-12-29T17:29:29;9.40;89.40
8043;DHT22;4064;48.132;11.366;2022-12-29T17:31:55;9.40;89.60
8043;DHT22;4064;48.132;11.366;2022-12-29T17:34:21;9.40;89.90
8043;DHT22;4064;48.132;11.366;2022-12-29T17:36:47;9.40;89.90
8043;DHT22;4064;48.132;11.366;2022-12-29T17:39:13;9.40;90.10
8043;DHT22;4064;48.132;11.366;2022-12-29T17:41:39;9.40;90.20
8043;DHT22;4064;48.132;11.366;2022-12-29T17:44:06;9.40;90.30
8043;DHT22;4064;48.132;11.366;2022-12-29T17:46:32;9.40;90.30
8043;DHT22;4064;48.132;11.366;2022-12-29T17:48:58;9.50;90.30
8043;DHT22;4064;48.132;11.366;2022-12-29T17:51:24;9.50;90.40
8043;DHT22;4064;48.132;11.366;2022-12-29T17:53:50;9.50;90.30
8043;DHT22;4064;48.132;11.366;2022-12-29T17:56:17;9.50;90.50
8043;DHT22;4064;48.132;11.366;2022-12-29T17:58:42;9.40;90.30
8043;DHT22;4064;48.132;11.366;2022-12-29T18:01:09;9.40;90.30
8043;DHT22;4064;48.132;11.366;2022-12-29T18:03:38;9.40;90.50
8043;DHT22;4064;48.132;11.366;2022-12-29T18:06:10;9.40;90.50
8043;DHT22;4064;48.132;11.366;2022-12-29T18:08:37;9.30;90.50
8043;DHT22;4064;48.132;11.366;2022-12-29T18:11:05;9.20;90.60
8043;DHT22;4064;48.132;11.366;2022-12-29T18:13:39;9.20;90.60
8043;DHT22;4064;48.132;11.366;2022-12-29T18:16:05;9.20;90.80
8043;DHT22;4064;48.132;11.366;2022-12-29T18:18:30;9.10;90.80
8043;DHT22;4064;48.132;11.366;2022-12-29T18:20:58;9.10;90.70
8043;DHT22;4064;48.132;11.366;2022-12-29T18:23:30;9.10;90.70
8043;DHT22;4064;48.132;11.366;2022-12-29T18:26:06;9.10;90.70
8043;DHT22;4064;48.132;11.366;2022-12-29T18:28:32;9.00;90.60
8043;DHT22;4064;48.132;11.366;2022-12-29T18:30:59;9.10;90.50
8043;DHT22;4064;48.132;11.366;2022-12-29T18:33:26;9.10;90.30
8043;DHT22;4064;48.132;11.366;2022-12-29T18:35:56;9.10;90.40
8043;DHT22;4064;48.132;11.366;2022-12-29T18:38:23;9.10;90.50
8043;DHT22;4064;48.132;11.366;2022-12-29T18:40:49;9.10;90.50
8043;DHT22;4064;48.132;11.366;2022-12-29T18:43:15;9.00;90.50
8043;DHT22;4064;48.132;11.366;2022-12-29T18:45:41;9.10;90.50
8043;DHT22;4064;48.132;11.366;2022-12-29T18:48:10;9.10;90.70
8043;DHT22;4064;48.132;11.366;2022-12-29T18:50:36;9.00;91.10